createdAt,value
2022-11-22T00:00:00.978Z,9.60
2022-11-22T00:00:33.733Z,9.02
2022-11-22T00:00:46.581Z,8.82
2022-11-22T00:00:59.448Z,8.90
2022-11-22T00:01:12.316Z,9.38
2022-11-22T00:01:26.370Z,9.26
2022-11-22T00:01:40.131Z,9.20
2022-11-22T00:01:53.030Z,9.32
2022-11-22T00:02:38.476Z,8.32
2022-11-22T00:02:51.338Z,8.35
2022-11-22T00:03:04.600Z,8.60
2022-11-22T00:03:37.954Z,8.93
2022-11-22T00:03:51.014Z,8.90
2022-11-22T00:04:03.897Z,8.63
2022-11-22T00:04:17.079Z,8.82
2022-11-22T00:04:30.146Z,8.75
2022-11-22T00:05:03.593Z,8.85
2022-11-22T00:05:17.546Z,9.07
2022-11-22T00:05:31.396Z,9.29
2022-11-22T00:06:35.585Z,9.43
2022-11-22T00:06:48.488Z,9.00
2022-11-22T00:07:01.885Z,8.73
2022-11-22T00:07:15.114Z,9.00
2022-11-22T00:07:28.088Z,8.73
2022-11-22T00:07:41.353Z,8.77
2022-11-22T00:07:54.508Z,9.13
2022-11-22T00:08:09.007Z,9.06
2022-11-22T00:08:54.586Z,8.90
2022-11-22T00:09:07.462Z,8.88
2022-11-22T00:09:20.259Z,9.38
2022-11-22T00:09:34.498Z,9.00
2022-11-22T00:09:47.366Z,8.80
2022-11-22T00:10:52.566Z,9.32
2022-11-22T00:11:26.231Z,9.00
2022-11-22T00:11:40.106Z,8.57
2022-11-22T00:12:09.590Z,8.95
2022-11-22T00:12:22.405Z,8.90
2022-11-22T00:12:36.192Z,8.90
2022-11-22T00:13:43.260Z,8.93
2022-11-22T00:13:56.088Z,8.85
2022-11-22T00:14:09.352Z,9.05
2022-11-22T00:14:23.027Z,9.20
2022-11-22T00:14:36.183Z,9.07
2022-11-22T00:14:55.441Z,8.95
2022-11-22T00:15:23.478Z,8.93
2022-11-22T00:15:36.333Z,9.15
2022-11-22T00:16:00.303Z,9.26
2022-11-22T00:16:13.527Z,9.40
2022-11-22T00:16:26.816Z,9.35
2022-11-22T00:16:39.679Z,9.10
2022-11-22T00:16:52.570Z,9.07
2022-11-22T00:17:05.458Z,9.27
2022-11-22T00:17:18.308Z,9.43
2022-11-22T00:17:39.198Z,9.25
2022-11-22T00:18:12.131Z,9.40
2022-11-22T00:18:25.271Z,9.13
2022-11-22T00:18:42.520Z,9.10
2022-11-22T00:18:55.374Z,8.98
2022-11-22T00:19:09.774Z,8.63
2022-11-22T00:19:25.591Z,8.70
2022-11-22T00:19:39.573Z,8.90
2022-11-22T00:19:54.271Z,9.10
2022-11-22T00:20:08.164Z,8.81
2022-11-22T00:20:21.189Z,8.93
2022-11-22T00:20:34.206Z,9.30
2022-11-22T00:20:47.204Z,8.95
2022-11-22T00:21:06.053Z,8.79
2022-11-22T00:21:31.822Z,8.25
2022-11-22T00:21:44.719Z,8.40
2022-11-22T00:22:31.317Z,9.13
2022-11-22T00:23:02.038Z,9.07
2022-11-22T00:23:14.908Z,9.02
2022-11-22T00:23:28.003Z,9.16
2022-11-22T00:23:41.414Z,9.32
2022-11-22T00:23:57.570Z,9.15
2022-11-22T00:24:12.696Z,9.10
2022-11-22T00:25:10.625Z,9.02
2022-11-22T00:25:27.389Z,9.20
2022-11-22T00:25:40.576Z,9.25
2022-11-22T00:26:26.148Z,9.23
2022-11-22T00:26:38.960Z,9.40
2022-11-22T00:26:51.797Z,9.10
2022-11-22T00:27:24.543Z,9.23
2022-11-22T00:27:38.313Z,9.25
2022-11-22T00:27:51.548Z,9.50
2022-11-22T00:28:39.723Z,9.33
2022-11-22T00:28:52.689Z,9.10
2022-11-22T00:29:05.559Z,8.95
2022-11-22T00:29:18.687Z,9.13
2022-11-22T00:29:31.919Z,9.16
2022-11-22T00:29:45.099Z,8.88
2022-11-22T00:29:57.917Z,9.02
2022-11-22T00:30:11.330Z,8.93
2022-11-22T00:30:24.273Z,8.68
2022-11-22T00:30:37.090Z,8.75
2022-11-22T00:30:50.374Z,9.30
2022-11-22T00:31:36.035Z,8.78
2022-11-22T00:31:49.146Z,8.95
2022-11-22T00:32:02.015Z,8.82
2022-11-22T00:32:15.111Z,8.75
2022-11-22T00:32:27.947Z,8.82
2022-11-22T00:33:32.240Z,9.17
2022-11-22T00:33:45.109Z,8.90
2022-11-22T00:33:58.160Z,9.00
2022-11-22T00:34:43.383Z,9.28
2022-11-22T00:35:19.010Z,9.02
2022-11-22T00:35:32.331Z,8.95
2022-11-22T00:35:46.321Z,8.80
2022-11-22T00:35:59.129Z,9.04
2022-11-22T00:36:11.983Z,9.07
2022-11-22T00:36:24.900Z,8.68
2022-11-22T00:36:37.737Z,8.68
2022-11-22T00:36:50.591Z,8.90
2022-11-22T00:37:03.473Z,8.77
2022-11-22T00:37:16.736Z,9.00
2022-11-22T00:37:29.778Z,9.07
2022-11-22T00:37:44.991Z,8.65
2022-11-22T00:38:49.863Z,9.10
2022-11-22T00:39:03.190Z,9.46
2022-11-22T00:39:16.471Z,9.40
2022-11-22T00:39:29.574Z,9.10
2022-11-22T00:39:45.489Z,8.96
2022-11-22T00:40:31.645Z,8.97
2022-11-22T00:40:44.666Z,8.98
2022-11-22T00:40:57.825Z,9.10
2022-11-22T00:41:27.806Z,8.73
2022-11-22T00:42:32.645Z,8.63
2022-11-22T00:42:45.903Z,8.73
2022-11-22T00:43:00.982Z,8.72
2022-11-22T00:43:13.831Z,8.52
2022-11-22T00:43:26.667Z,8.52
2022-11-22T00:43:39.601Z,9.02
2022-11-22T00:43:52.833Z,9.23
2022-11-22T00:44:05.764Z,9.20
2022-11-22T00:44:19.663Z,9.11
2022-11-22T00:44:32.516Z,9.00
2022-11-22T00:45:36.516Z,8.93
2022-11-22T00:45:49.328Z,8.95
2022-11-22T00:46:02.763Z,9.23
2022-11-22T00:46:15.649Z,9.30
2022-11-22T00:46:28.596Z,8.85
2022-11-22T00:47:19.936Z,8.90
2022-11-22T00:47:32.899Z,9.25
2022-11-22T00:47:45.988Z,8.88
2022-11-22T00:47:59.789Z,8.88
2022-11-22T00:48:12.705Z,9.00
2022-11-22T00:48:26.167Z,9.21
2022-11-22T00:48:43.577Z,9.30
2022-11-22T00:48:56.413Z,9.34
2022-11-22T00:49:09.581Z,9.20
2022-11-22T00:49:58.026Z,8.77
2022-11-22T00:50:11.338Z,8.88
2022-11-22T00:50:25.060Z,8.90
2022-11-22T00:50:38.182Z,8.95
2022-11-22T00:50:51.570Z,9.05
2022-11-22T00:51:56.834Z,9.00
2022-11-22T00:53:01.152Z,9.04
2022-11-22T00:53:13.978Z,9.18
2022-11-22T00:53:46.770Z,9.50
2022-11-22T00:54:19.589Z,9.20
2022-11-22T00:55:08.259Z,9.48
2022-11-22T00:55:42.891Z,9.43
2022-11-22T00:55:56.231Z,9.40
2022-11-22T00:56:09.112Z,9.60
2022-11-22T00:56:23.018Z,9.49
2022-11-22T00:57:08.211Z,8.54
2022-11-22T00:57:21.024Z,8.75
2022-11-22T00:57:33.943Z,9.20
2022-11-22T00:57:46.811Z,9.25
2022-11-22T00:57:59.646Z,9.13
2022-11-22T00:58:12.916Z,9.02
2022-11-22T00:58:25.732Z,9.20
2022-11-22T00:58:39.062Z,9.15
2022-11-22T00:58:52.384Z,8.98
2022-11-22T00:59:06.292Z,8.63
2022-11-22T00:59:19.233Z,8.52
2022-11-22T01:00:25.052Z,9.10
2022-11-22T01:00:40.135Z,9.22
2022-11-22T01:00:56.557Z,9.43
2022-11-22T01:01:22.292Z,8.82
2022-11-22T01:01:35.302Z,8.90
2022-11-22T01:01:48.656Z,9.06
2022-11-22T01:02:01.499Z,9.05
2022-11-22T01:03:26.446Z,9.53
2022-11-22T01:03:39.299Z,9.13
2022-11-22T01:03:52.106Z,9.10
2022-11-22T01:04:05.090Z,9.52
2022-11-22T01:04:17.909Z,9.45
2022-11-22T01:04:52.126Z,8.87
2022-11-22T01:05:05.257Z,9.10
2022-11-22T01:05:20.149Z,9.00
2022-11-22T01:05:33.945Z,9.22
2022-11-22T01:06:04.483Z,8.75
2022-11-22T01:06:18.199Z,8.82
2022-11-22T01:06:31.620Z,9.20
2022-11-22T01:06:46.386Z,9.34
2022-11-22T01:07:31.780Z,9.20
2022-11-22T01:08:36.240Z,8.67
2022-11-22T01:08:49.290Z,8.88
2022-11-22T01:09:03.138Z,9.48
2022-11-22T01:09:18.263Z,9.69
2022-11-22T01:10:04.672Z,9.50
2022-11-22T01:11:17.866Z,9.53
2022-11-22T01:11:30.817Z,9.44
2022-11-22T01:11:44.396Z,9.40
2022-11-22T01:11:57.423Z,9.55
2022-11-22T01:12:10.759Z,9.32
2022-11-22T01:12:27.499Z,9.10
2022-11-22T01:12:40.670Z,9.13
2022-11-22T01:13:45.798Z,9.37
2022-11-22T01:13:59.014Z,9.13
2022-11-22T01:14:12.513Z,9.24
2022-11-22T01:15:17.760Z,8.75
2022-11-22T01:15:31.588Z,9.00
2022-11-22T01:15:46.457Z,9.13
2022-11-22T01:16:19.376Z,9.50
2022-11-22T01:16:34.926Z,9.75
2022-11-22T01:16:48.774Z,9.00
2022-11-22T01:17:22.582Z,9.57
2022-11-22T01:17:36.031Z,9.70
2022-11-22T01:17:49.057Z,9.57
2022-11-22T01:18:02.240Z,9.68
2022-11-22T01:18:15.100Z,9.85
2022-11-22T01:18:28.062Z,9.88
2022-11-22T01:18:43.116Z,9.48
2022-11-22T01:18:56.426Z,9.39
2022-11-22T01:19:09.304Z,9.23
2022-11-22T01:19:44.428Z,9.12
2022-11-22T01:19:57.248Z,9.45
2022-11-22T01:20:12.357Z,9.11
2022-11-22T01:20:25.364Z,8.91
2022-11-22T01:20:40.715Z,9.18
2022-11-22T01:20:53.907Z,9.16
2022-11-22T01:21:09.033Z,9.46
2022-11-22T01:21:21.876Z,9.60
2022-11-22T01:21:34.738Z,9.50
2022-11-22T01:22:04.907Z,9.38
2022-11-22T01:22:17.712Z,9.27
2022-11-22T01:22:30.548Z,9.45
2022-11-22T01:22:43.381Z,8.85
2022-11-22T01:22:57.515Z,9.04
2022-11-22T01:23:10.771Z,9.23
2022-11-22T01:23:24.159Z,9.60
2022-11-22T01:23:37.010Z,9.30
2022-11-22T01:23:49.830Z,8.90
2022-11-22T01:24:02.745Z,9.43
2022-11-22T01:24:15.742Z,9.45
2022-11-22T01:24:28.778Z,9.50
2022-11-22T01:24:42.048Z,9.75
2022-11-22T01:24:54.923Z,9.69
2022-11-22T01:25:08.380Z,9.30
2022-11-22T01:25:22.314Z,8.80
2022-11-22T01:25:42.096Z,8.75
2022-11-22T01:26:47.242Z,9.47
2022-11-22T01:27:00.052Z,9.60
2022-11-22T01:27:13.110Z,9.30
2022-11-22T01:27:26.346Z,9.27
2022-11-22T01:27:55.472Z,9.25
2022-11-22T01:28:08.598Z,9.11
2022-11-22T01:28:21.497Z,9.56
2022-11-22T01:28:37.830Z,9.52
2022-11-22T01:30:19.824Z,9.57
2022-11-22T01:30:33.796Z,9.54
2022-11-22T01:31:23.438Z,8.96
2022-11-22T01:32:08.664Z,9.95
2022-11-22T01:32:21.867Z,10.02
2022-11-22T01:32:34.781Z,9.80
2022-11-22T01:32:48.404Z,9.56
2022-11-22T01:33:03.377Z,9.20
2022-11-22T01:33:16.198Z,8.80
2022-11-22T01:33:29.934Z,8.80
2022-11-22T01:33:42.752Z,9.00
2022-11-22T01:33:59.062Z,9.16
2022-11-22T01:34:13.246Z,9.02
2022-11-22T01:34:28.266Z,9.08
2022-11-22T01:35:13.444Z,9.43
2022-11-22T01:35:26.976Z,9.43
2022-11-22T01:35:59.757Z,8.90
2022-11-22T01:36:13.661Z,9.23
2022-11-22T01:37:05.280Z,9.10
2022-11-22T01:37:18.970Z,8.63
2022-11-22T01:37:34.465Z,8.52
2022-11-22T01:37:47.818Z,8.82
2022-11-22T01:38:00.714Z,8.65
2022-11-22T01:38:13.570Z,8.75
2022-11-22T01:38:58.886Z,9.40
2022-11-22T01:39:13.935Z,9.22
2022-11-22T01:39:27.869Z,8.85
2022-11-22T01:39:42.028Z,8.68
2022-11-22T01:39:55.392Z,9.10
2022-11-22T01:40:10.198Z,9.35
2022-11-22T01:40:23.069Z,8.80
2022-11-22T01:41:28.145Z,9.33
2022-11-22T01:41:40.981Z,9.80
2022-11-22T01:41:53.800Z,9.60
2022-11-22T01:42:06.787Z,9.68
2022-11-22T01:42:19.857Z,9.26
2022-11-22T01:43:31.006Z,9.00
2022-11-22T01:43:56.846Z,9.33
2022-11-22T01:44:21.963Z,9.15
2022-11-22T01:44:39.317Z,9.02
2022-11-22T01:44:54.487Z,9.18
2022-11-22T01:45:30.457Z,8.92
2022-11-22T01:46:27.480Z,9.07
2022-11-22T01:47:21.441Z,9.20
2022-11-22T01:48:34.597Z,9.50
2022-11-22T01:49:04.502Z,9.50
2022-11-22T01:49:40.054Z,9.50
2022-11-22T01:50:11.401Z,9.35
2022-11-22T01:50:24.876Z,9.30
2022-11-22T01:50:40.320Z,9.10
2022-11-22T01:50:55.599Z,9.10
2022-11-22T01:51:44.495Z,8.74
2022-11-22T01:52:01.435Z,8.93
2022-11-22T01:52:19.779Z,9.27
2022-11-22T01:52:32.848Z,9.32
2022-11-22T01:52:46.024Z,9.00
2022-11-22T01:53:00.857Z,9.18
2022-11-22T01:53:18.815Z,9.30
2022-11-22T01:53:36.157Z,9.10
2022-11-22T01:54:28.651Z,8.77
2022-11-22T01:54:44.764Z,9.20
2022-11-22T01:55:17.847Z,9.30
2022-11-22T01:56:32.203Z,9.07
2022-11-22T01:56:51.260Z,8.80
2022-11-22T01:57:21.000Z,8.60
2022-11-22T01:57:35.666Z,8.34
2022-11-22T01:57:49.081Z,8.50
2022-11-22T01:58:21.904Z,8.00
2022-11-22T01:58:37.617Z,8.30
2022-11-22T01:59:13.654Z,9.38
2022-11-22T02:00:04.221Z,9.47
2022-11-22T02:00:18.316Z,9.30
2022-11-22T02:00:31.135Z,8.23
2022-11-22T02:00:44.136Z,8.50
2022-11-22T02:00:57.315Z,8.68
2022-11-22T02:02:21.447Z,8.70
2022-11-22T02:02:34.883Z,8.82
2022-11-22T02:02:51.459Z,8.93
2022-11-22T02:03:19.184Z,8.80
2022-11-22T02:03:32.505Z,9.00
2022-11-22T02:03:46.534Z,8.90
2022-11-22T02:04:19.813Z,9.13
2022-11-22T02:04:33.269Z,9.10
2022-11-22T02:04:46.171Z,9.00
2022-11-22T02:04:59.275Z,9.00
2022-11-22T02:05:45.411Z,9.00
2022-11-22T02:05:59.145Z,8.96
2022-11-22T02:06:12.177Z,8.60
2022-11-22T02:06:26.380Z,8.60
2022-11-22T02:08:00.306Z,8.67
2022-11-22T02:08:56.923Z,8.53
2022-11-22T02:09:45.197Z,8.47
2022-11-22T02:09:58.452Z,8.55
2022-11-22T02:10:11.474Z,8.70
2022-11-22T02:10:26.570Z,9.00
2022-11-22T02:10:44.951Z,8.90
2022-11-22T02:10:57.802Z,8.50
2022-11-22T02:11:11.480Z,8.50
2022-11-22T02:11:27.445Z,8.64
2022-11-22T02:11:47.880Z,8.82
2022-11-22T02:12:14.558Z,8.52
2022-11-22T02:12:28.419Z,8.65
2022-11-22T02:12:58.324Z,8.70
2022-11-22T02:13:11.233Z,9.07
2022-11-22T02:13:26.324Z,8.90
2022-11-22T02:13:41.813Z,8.82
2022-11-22T02:13:54.684Z,8.84
2022-11-22T02:14:08.857Z,8.73
2022-11-22T02:14:25.508Z,8.79
2022-11-22T02:14:38.519Z,9.10
2022-11-22T02:14:51.419Z,9.07
2022-11-22T02:15:04.974Z,8.88
2022-11-22T02:15:18.925Z,9.04
2022-11-22T02:15:32.274Z,8.93
2022-11-22T02:15:45.134Z,8.65
2022-11-22T02:15:58.896Z,8.49
2022-11-22T02:16:11.809Z,8.63
2022-11-22T02:16:26.898Z,8.32
2022-11-22T02:16:39.730Z,8.60
2022-11-22T02:16:53.097Z,8.77
2022-11-22T02:17:06.506Z,8.38
2022-11-22T02:17:21.291Z,8.26
2022-11-22T02:17:34.263Z,8.43
2022-11-22T02:17:48.160Z,8.52
2022-11-22T02:18:01.150Z,8.38
2022-11-22T02:18:35.935Z,8.52
2022-11-22T02:18:48.807Z,8.25
2022-11-22T02:19:01.774Z,8.13
2022-11-22T02:19:50.963Z,8.46
2022-11-22T02:20:17.543Z,8.88
2022-11-22T02:20:30.340Z,8.45
2022-11-22T02:20:44.133Z,8.61
2022-11-22T02:20:57.007Z,8.60
2022-11-22T02:21:09.897Z,8.48
2022-11-22T02:21:23.889Z,8.34
2022-11-22T02:21:37.217Z,8.27
2022-11-22T02:21:52.102Z,8.70
2022-11-22T02:30:50.641Z,9.20
2022-11-22T02:31:03.877Z,8.70
2022-11-22T02:31:37.718Z,8.63
2022-11-22T02:32:29.446Z,8.60
2022-11-22T02:32:42.645Z,9.15
2022-11-22T02:32:57.322Z,9.38
2022-11-22T02:33:10.462Z,9.26
2022-11-22T02:33:23.554Z,9.05
2022-11-22T02:33:36.412Z,8.95
2022-11-22T02:33:49.772Z,9.20
2022-11-22T02:34:02.866Z,9.20
2022-11-22T02:34:17.749Z,8.92
2022-11-22T02:34:40.327Z,8.82
2022-11-22T02:34:53.691Z,8.50
2022-11-22T02:35:27.278Z,8.35
2022-11-22T02:36:00.725Z,8.85
2022-11-22T02:36:13.865Z,8.95
2022-11-22T02:36:27.778Z,9.00
2022-11-22T02:37:35.320Z,9.17
2022-11-22T02:38:43.740Z,8.68
2022-11-22T02:39:09.676Z,8.48
2022-11-22T02:39:25.826Z,8.52
2022-11-22T02:39:38.711Z,8.60
2022-11-22T02:40:03.038Z,8.73
2022-11-22T02:41:13.326Z,8.80
2022-11-22T02:42:19.039Z,8.52
2022-11-22T02:42:33.165Z,8.79
2022-11-22T02:43:22.130Z,8.70
2022-11-22T02:43:48.416Z,8.23
2022-11-22T02:44:21.299Z,8.80
2022-11-22T02:44:34.145Z,8.73
2022-11-22T02:44:47.465Z,8.45
2022-11-22T02:45:20.246Z,8.73
2022-11-22T02:45:53.423Z,8.94
2022-11-22T02:46:07.991Z,8.52
2022-11-22T02:46:48.146Z,8.40
2022-11-22T02:47:01.195Z,8.24
2022-11-22T02:47:15.043Z,8.35
2022-11-22T02:47:27.915Z,8.09
2022-11-22T02:48:26.045Z,7.97
2022-11-22T02:48:44.328Z,7.69
2022-11-22T02:49:30.939Z,8.45
2022-11-22T02:49:44.532Z,8.43
2022-11-22T02:49:57.630Z,8.90
2022-11-22T02:50:10.926Z,8.98
2022-11-22T02:51:17.127Z,8.63
2022-11-22T02:51:31.051Z,8.70
2022-11-22T02:51:44.887Z,8.67
2022-11-22T02:52:31.456Z,8.58
2022-11-22T02:53:57.013Z,8.50
2022-11-22T02:55:05.068Z,8.43
2022-11-22T02:55:50.591Z,8.37
2022-11-22T02:56:55.176Z,8.87
2022-11-22T02:57:08.955Z,8.91
2022-11-22T02:57:21.874Z,8.82
2022-11-22T02:57:34.681Z,9.10
2022-11-22T02:57:47.954Z,8.70
2022-11-22T02:58:02.855Z,8.45
2022-11-22T02:58:15.714Z,8.46
2022-11-22T02:58:28.770Z,8.48
2022-11-22T02:58:41.790Z,8.55
2022-11-22T02:58:55.261Z,8.68
2022-11-22T02:59:08.205Z,8.88
2022-11-22T02:59:42.954Z,7.93
2022-11-22T02:59:56.166Z,8.18
2022-11-22T03:00:25.904Z,8.55
2022-11-22T03:00:39.700Z,8.25
2022-11-22T03:00:53.057Z,8.07
2022-11-22T03:01:06.985Z,8.15
2022-11-22T03:01:19.953Z,8.13
2022-11-22T03:01:33.125Z,8.20
2022-11-22T03:01:47.223Z,8.44
2022-11-22T03:02:03.404Z,8.50
2022-11-22T03:02:17.656Z,8.50
2022-11-22T03:02:30.704Z,7.91
2022-11-22T03:02:43.528Z,8.02
2022-11-22T03:02:56.380Z,8.63
2022-11-22T03:03:09.224Z,8.85
2022-11-22T03:03:22.088Z,9.27
2022-11-22T03:04:07.482Z,8.40
2022-11-22T03:04:26.341Z,8.43
2022-11-22T03:05:10.411Z,8.70
2022-11-22T03:05:23.230Z,8.50
2022-11-22T03:05:36.419Z,8.51
2022-11-22T03:05:50.461Z,8.59
2022-11-22T03:06:03.815Z,8.38
2022-11-22T03:06:16.679Z,8.43
2022-11-22T03:06:30.789Z,8.15
2022-11-22T03:07:04.726Z,8.30
2022-11-22T03:07:18.377Z,8.23
2022-11-22T03:07:49.797Z,7.80
2022-11-22T03:08:02.762Z,7.97
2022-11-22T03:08:55.939Z,7.93
2022-11-22T03:10:18.335Z,8.82
2022-11-22T03:11:24.222Z,8.50
2022-11-22T03:11:37.776Z,8.68
2022-11-22T03:12:26.434Z,8.83
2022-11-22T03:12:39.641Z,8.88
2022-11-22T03:12:52.475Z,8.70
2022-11-22T03:13:05.601Z,8.48
2022-11-22T03:13:38.326Z,8.60
2022-11-22T03:13:52.225Z,8.49
2022-11-22T03:14:05.078Z,8.30
2022-11-22T03:14:20.845Z,8.20
2022-11-22T03:14:34.269Z,8.48
2022-11-22T03:14:47.172Z,8.30
2022-11-22T03:14:59.996Z,7.95
2022-11-22T03:15:13.279Z,7.85
2022-11-22T03:15:48.742Z,8.45
2022-11-22T03:16:01.592Z,8.40
2022-11-22T03:16:14.920Z,8.63
2022-11-22T03:16:28.077Z,8.68
2022-11-22T03:16:42.900Z,8.48
2022-11-22T03:17:16.548Z,7.90
2022-11-22T03:17:30.490Z,8.27
2022-11-22T03:17:44.174Z,8.60
2022-11-22T03:18:00.470Z,8.70
2022-11-22T03:18:46.512Z,7.90
2022-11-22T03:18:59.283Z,7.75
2022-11-22T03:19:12.286Z,8.00
2022-11-22T03:19:25.417Z,8.10
2022-11-22T03:19:38.259Z,8.00
2022-11-22T03:20:11.034Z,8.77
2022-11-22T03:20:41.837Z,8.35
2022-11-22T03:20:54.666Z,8.30
2022-11-22T03:21:09.066Z,8.82
2022-11-22T03:21:21.979Z,8.95
2022-11-22T03:22:07.276Z,8.50
2022-11-22T03:22:20.581Z,8.32
2022-11-22T03:22:33.628Z,7.90
2022-11-22T03:22:46.690Z,7.93
2022-11-22T03:23:32.979Z,8.10
2022-11-22T03:23:46.073Z,8.60
2022-11-22T03:23:58.968Z,8.50
2022-11-22T03:24:11.903Z,8.18
2022-11-22T03:24:25.167Z,8.38
2022-11-22T03:24:38.385Z,8.43
2022-11-22T03:24:51.465Z,8.27
2022-11-22T03:25:42.891Z,8.00
2022-11-22T03:26:59.732Z,8.50
2022-11-22T03:27:12.638Z,8.63
2022-11-22T03:27:25.540Z,8.52
2022-11-22T03:27:38.418Z,8.63
2022-11-22T03:27:51.286Z,8.65
2022-11-22T03:28:04.291Z,8.52
2022-11-22T03:28:17.842Z,8.90
2022-11-22T03:28:30.983Z,8.93
2022-11-22T03:28:43.820Z,8.70
2022-11-22T03:29:17.686Z,8.40
2022-11-22T03:29:30.725Z,8.60
2022-11-22T03:29:43.774Z,8.39
2022-11-22T03:29:57.100Z,8.15
2022-11-22T03:30:10.402Z,7.90
2022-11-22T03:30:23.837Z,7.86
2022-11-22T03:30:41.319Z,8.13
2022-11-22T03:31:07.417Z,8.18
2022-11-22T03:31:20.298Z,8.10
2022-11-22T03:31:33.139Z,8.07
2022-11-22T03:31:46.086Z,8.30
2022-11-22T03:31:58.923Z,8.48
2022-11-22T03:32:11.752Z,8.55
2022-11-22T03:32:26.763Z,8.64
2022-11-22T03:32:39.632Z,8.88
2022-11-22T03:32:52.521Z,9.18
2022-11-22T03:33:06.384Z,8.54
2022-11-22T03:33:19.183Z,8.15
2022-11-22T03:33:32.618Z,8.80
2022-11-22T03:33:45.533Z,9.02
2022-11-22T03:33:58.747Z,8.77
2022-11-22T03:34:12.783Z,9.00
2022-11-22T03:34:28.061Z,8.85
2022-11-22T03:35:21.186Z,8.35
2022-11-22T03:35:34.432Z,8.65
2022-11-22T03:35:47.275Z,8.95
2022-11-22T03:36:22.196Z,8.80
2022-11-22T03:36:37.507Z,8.50
2022-11-22T03:36:50.366Z,8.20
2022-11-22T03:37:03.200Z,8.30
2022-11-22T03:37:16.028Z,8.60
2022-11-22T03:37:28.944Z,8.63
2022-11-22T03:37:41.759Z,8.73
2022-11-22T03:38:26.968Z,8.30
2022-11-22T03:38:39.823Z,8.43
2022-11-22T03:38:53.152Z,8.31
2022-11-22T03:39:06.206Z,8.65
2022-11-22T03:40:11.356Z,8.90
2022-11-22T03:40:24.644Z,8.82
2022-11-22T03:40:37.606Z,8.60
2022-11-22T03:41:09.301Z,8.52
2022-11-22T03:41:23.094Z,8.82
2022-11-22T03:41:57.717Z,9.00
2022-11-22T03:42:10.534Z,8.82
2022-11-22T03:42:23.682Z,9.07
2022-11-22T03:42:36.519Z,9.68
2022-11-22T03:42:49.455Z,9.43
2022-11-22T03:43:02.817Z,8.77
2022-11-22T03:43:16.174Z,8.63
2022-11-22T03:44:07.327Z,9.40
2022-11-22T03:44:20.235Z,9.80
2022-11-22T03:45:04.410Z,8.90
2022-11-22T03:45:17.305Z,8.73
2022-11-22T03:45:30.499Z,8.85
2022-11-22T03:45:46.156Z,8.74
2022-11-22T03:45:59.024Z,8.77
2022-11-22T03:46:46.535Z,8.82
2022-11-22T03:46:59.430Z,8.90
2022-11-22T03:47:32.164Z,8.70
2022-11-22T03:47:45.065Z,8.35
2022-11-22T03:47:58.155Z,8.27
2022-11-22T03:48:10.989Z,8.57
2022-11-22T03:48:23.807Z,8.68
2022-11-22T03:48:36.661Z,8.88
2022-11-22T03:48:49.498Z,8.98
2022-11-22T03:49:02.395Z,8.77
2022-11-22T03:49:15.320Z,8.60
2022-11-22T03:49:30.539Z,8.34
2022-11-22T03:50:05.700Z,8.65
2022-11-22T03:50:18.574Z,8.68
2022-11-22T03:50:31.565Z,8.88
2022-11-22T03:50:47.444Z,9.04
2022-11-22T03:51:05.330Z,8.94
2022-11-22T03:51:52.989Z,8.57
2022-11-22T03:52:05.843Z,8.32
2022-11-22T03:52:19.099Z,8.40
2022-11-22T03:53:04.261Z,8.67
2022-11-22T03:54:29.184Z,8.83
2022-11-22T03:54:42.035Z,8.85
2022-11-22T03:54:55.240Z,8.98
2022-11-22T03:55:08.380Z,8.93
2022-11-22T03:55:23.415Z,9.32
2022-11-22T03:55:36.265Z,9.75
2022-11-22T03:55:49.616Z,9.85
2022-11-22T03:56:02.793Z,9.84
2022-11-22T03:56:19.652Z,9.00
2022-11-22T03:56:32.901Z,8.82
2022-11-22T03:56:46.230Z,8.93
2022-11-22T03:56:59.125Z,9.23
2022-11-22T03:57:12.470Z,9.18
2022-11-22T03:57:26.406Z,9.09
2022-11-22T03:57:39.249Z,8.95
2022-11-22T03:57:52.048Z,9.18
2022-11-22T03:58:05.990Z,9.95
2022-11-22T03:58:18.942Z,10.20
2022-11-22T03:58:33.823Z,10.24
2022-11-22T03:58:47.731Z,9.68
2022-11-22T03:59:00.997Z,8.80
2022-11-22T03:59:14.209Z,8.68
2022-11-22T04:00:18.467Z,8.73
2022-11-22T04:00:32.722Z,8.74
2022-11-22T04:01:18.074Z,9.70
2022-11-22T04:01:30.986Z,9.90
2022-11-22T04:01:44.980Z,9.56
2022-11-22T04:01:58.287Z,9.20
2022-11-22T04:02:11.278Z,9.43
2022-11-22T04:02:24.208Z,9.89
2022-11-22T04:02:37.212Z,10.30
2022-11-22T04:03:25.213Z,9.67
2022-11-22T04:04:30.305Z,9.65
2022-11-22T04:04:43.640Z,9.70
2022-11-22T04:04:56.997Z,9.57
2022-11-22T04:05:09.979Z,9.48
2022-11-22T04:05:23.887Z,9.46
2022-11-22T04:05:36.732Z,9.20
2022-11-22T04:06:07.196Z,8.73
2022-11-22T04:06:20.411Z,9.20
2022-11-22T04:06:33.701Z,9.73
2022-11-22T04:07:04.697Z,9.77
2022-11-22T04:07:17.659Z,9.60
2022-11-22T04:07:31.428Z,10.02
2022-11-22T04:07:44.400Z,10.55
2022-11-22T04:07:58.372Z,10.68
2022-11-22T04:08:11.249Z,9.95
2022-11-22T04:08:24.544Z,10.01
2022-11-22T04:08:37.767Z,9.77
2022-11-22T04:08:50.695Z,9.68
2022-11-22T04:09:03.708Z,10.23
2022-11-22T04:09:16.676Z,10.02
2022-11-22T04:09:50.198Z,10.17
2022-11-22T04:10:03.863Z,10.00
2022-11-22T04:10:22.049Z,9.40
2022-11-22T04:11:02.760Z,9.85
2022-11-22T04:11:15.746Z,9.57
2022-11-22T04:11:28.834Z,9.32
2022-11-22T04:11:41.737Z,9.43
2022-11-22T04:11:54.682Z,9.68
2022-11-22T04:12:08.376Z,10.10
2022-11-22T04:12:21.425Z,9.93
2022-11-22T04:13:10.854Z,9.30
2022-11-22T04:13:43.682Z,9.75
2022-11-22T04:14:46.251Z,10.80
2022-11-22T04:15:08.519Z,9.68
2022-11-22T04:15:21.759Z,9.95
2022-11-22T04:15:35.126Z,9.84
2022-11-22T04:16:20.848Z,10.57
2022-11-22T04:16:36.226Z,10.15
2022-11-22T04:16:49.356Z,10.20
2022-11-22T04:17:40.710Z,9.98
2022-11-22T04:17:54.543Z,9.30
2022-11-22T04:18:10.445Z,9.42
2022-11-22T04:18:23.683Z,9.97
2022-11-22T04:18:38.692Z,10.45
2022-11-22T04:18:53.461Z,10.52
2022-11-22T04:19:06.298Z,10.65
2022-11-22T04:20:20.838Z,10.30
2022-11-22T04:20:52.612Z,10.00
2022-11-22T04:21:24.632Z,9.43
2022-11-22T04:21:50.447Z,9.90
2022-11-22T04:22:03.260Z,10.60
2022-11-22T04:22:18.123Z,10.70
2022-11-22T04:22:31.015Z,10.07
2022-11-22T04:22:44.300Z,9.55
2022-11-22T04:22:58.299Z,9.30
2022-11-22T04:23:21.528Z,9.40
2022-11-22T04:23:34.575Z,9.40
2022-11-22T04:24:08.255Z,10.18
2022-11-22T04:25:15.935Z,9.82
2022-11-22T04:25:30.384Z,9.80
2022-11-22T04:25:48.864Z,9.60
2022-11-22T04:26:01.702Z,9.30
2022-11-22T04:26:15.499Z,9.73
2022-11-22T04:26:28.606Z,10.32
2022-11-22T04:26:46.435Z,9.96
2022-11-22T04:26:59.265Z,9.95
2022-11-22T04:27:12.104Z,10.00
2022-11-22T04:27:25.862Z,9.77
2022-11-22T04:27:38.757Z,9.75
2022-11-22T04:27:51.558Z,9.95
2022-11-22T04:28:04.904Z,10.20
2022-11-22T04:28:19.345Z,10.27
2022-11-22T04:28:53.957Z,10.27
2022-11-22T04:29:12.079Z,10.13
2022-11-22T04:29:56.634Z,9.60
2022-11-22T04:31:06.856Z,9.30
2022-11-22T04:32:17.403Z,9.57
2022-11-22T04:32:46.576Z,9.07
2022-11-22T04:33:12.023Z,9.55
2022-11-22T04:34:20.871Z,9.68
2022-11-22T04:34:34.026Z,9.60
2022-11-22T04:35:19.911Z,10.23
2022-11-22T04:35:34.639Z,10.20
2022-11-22T04:35:47.539Z,10.18
2022-11-22T04:36:00.471Z,9.95
2022-11-22T04:36:13.622Z,9.57
2022-11-22T04:36:26.531Z,9.85
2022-11-22T04:36:39.710Z,9.55
2022-11-22T04:36:53.012Z,9.35
2022-11-22T04:37:06.295Z,9.97
2022-11-22T04:37:20.205Z,10.13
2022-11-22T04:37:33.345Z,10.30
2022-11-22T04:37:51.077Z,10.15
2022-11-22T04:38:19.142Z,10.07
2022-11-22T04:38:32.366Z,9.93
2022-11-22T04:38:45.203Z,9.52
2022-11-22T04:38:59.560Z,9.40
2022-11-22T04:39:13.760Z,9.45
2022-11-22T04:39:26.659Z,9.65
2022-11-22T04:39:40.533Z,9.60
2022-11-22T04:39:58.025Z,9.70
2022-11-22T04:40:11.050Z,9.88
2022-11-22T04:40:23.876Z,9.57
2022-11-22T04:40:36.832Z,9.30
2022-11-22T04:40:50.109Z,9.45
2022-11-22T04:41:03.003Z,9.50
2022-11-22T04:41:15.855Z,9.59
2022-11-22T04:42:40.079Z,9.87
2022-11-22T04:43:45.444Z,9.75
2022-11-22T04:44:42.140Z,9.35
2022-11-22T04:45:17.764Z,9.95
2022-11-22T04:45:30.639Z,9.93
2022-11-22T04:45:43.651Z,9.63
2022-11-22T04:45:57.816Z,9.50
2022-11-22T04:46:10.878Z,9.57
2022-11-22T04:46:24.734Z,9.75
2022-11-22T04:46:39.654Z,9.74
2022-11-22T04:46:52.880Z,9.82
2022-11-22T04:47:05.719Z,9.98
2022-11-22T04:47:38.901Z,9.98
2022-11-22T04:48:52.495Z,9.73
2022-11-22T04:49:05.500Z,10.20
2022-11-22T04:49:18.420Z,10.65
2022-11-22T04:49:53.447Z,10.10
2022-11-22T04:50:46.346Z,9.80
2022-11-22T04:52:27.852Z,10.23
2022-11-22T04:53:18.687Z,9.67
2022-11-22T04:53:31.521Z,9.63
2022-11-22T04:53:45.010Z,9.30
2022-11-22T04:53:57.852Z,9.43
2022-11-22T04:54:43.018Z,10.00
2022-11-22T04:54:56.303Z,10.20
2022-11-22T04:55:09.616Z,10.55
2022-11-22T04:55:23.027Z,10.52
2022-11-22T04:55:39.023Z,9.88
2022-11-22T04:56:43.123Z,10.07
2022-11-22T04:56:56.247Z,9.95
2022-11-22T04:57:09.530Z,10.00
2022-11-22T04:57:22.832Z,9.95
2022-11-22T04:57:36.731Z,10.14
2022-11-22T04:57:57.522Z,10.24
2022-11-22T04:58:36.937Z,9.90